createdAt,value
2024-04-19T00:01:54.215Z,7.00
2024-04-19T00:07:00.301Z,6.70
2024-04-19T00:12:07.285Z,7.00
2024-04-19T00:17:13.811Z,6.50
2024-04-19T00:22:20.198Z,6.20
2024-04-19T00:27:26.320Z,6.80
2024-04-19T00:32:32.720Z,6.90
2024-04-19T00:37:38.736Z,6.10
2024-04-19T00:42:44.874Z,6.70
2024-04-19T00:47:51.132Z,6.30
2024-04-19T00:52:57.343Z,6.20
2024-04-19T00:58:04.286Z,6.50
2024-04-19T01:03:12.047Z,7.10
2024-04-19T01:08:18.459Z,7.00
2024-04-19T01:13:24.538Z,6.70
2024-04-19T01:18:30.826Z,6.50
2024-04-19T01:23:37.646Z,6.30
2024-04-19T01:28:45.147Z,6.40
2024-04-19T01:33:51.216Z,7.20
2024-04-19T01:38:57.177Z,6.10
2024-04-19T01:44:03.342Z,6.40
2024-04-19T01:49:09.483Z,6.40
2024-04-19T01:54:16.675Z,6.90
2024-04-19T01:59:22.760Z,6.60
2024-04-19T02:04:29.171Z,5.70
2024-04-19T02:09:36.158Z,5.70
2024-04-19T02:14:42.202Z,6.50
2024-04-19T02:19:48.155Z,6.00
2024-04-19T02:24:54.455Z,6.30
2024-04-19T02:30:19.237Z,6.10
2024-04-19T02:35:25.857Z,6.00
2024-04-19T02:40:32.303Z,6.40
2024-04-19T02:45:52.948Z,6.30
2024-04-19T02:51:04.913Z,6.70
2024-04-19T02:56:10.979Z,6.10
2024-04-19T03:01:17.112Z,6.60
2024-04-19T03:06:24.779Z,7.50
2024-04-19T03:11:30.832Z,7.70
2024-04-19T03:16:37.011Z,8.20
2024-04-19T03:21:43.052Z,7.70
2024-04-19T03:26:49.251Z,8.40
2024-04-19T03:31:55.282Z,9.30
2024-04-19T03:37:01.391Z,8.90
2024-04-19T03:42:15.269Z,9.60
2024-04-19T03:47:21.443Z,9.50
2024-04-19T03:52:27.818Z,11.00
2024-04-19T03:57:34.145Z,11.50
2024-04-19T04:02:40.074Z,11.70
2024-04-19T04:07:46.209Z,12.30
2024-04-19T04:12:55.562Z,9.80
2024-04-19T04:18:03.998Z,10.30
2024-04-19T04:23:10.159Z,14.70
2024-04-19T04:28:16.253Z,11.30
2024-04-19T04:33:22.535Z,11.50
2024-04-19T04:38:28.721Z,12.50
2024-04-19T04:43:34.923Z,12.80
2024-04-19T04:48:41.261Z,12.50
2024-04-19T04:53:47.272Z,12.00
2024-04-19T04:58:53.219Z,13.20
2024-04-19T05:03:59.322Z,14.70
2024-04-19T05:09:05.469Z,17.20
2024-04-19T05:14:11.414Z,12.30
2024-04-19T05:19:17.647Z,11.20
2024-04-19T05:24:23.932Z,11.10
2024-04-19T05:29:29.895Z,10.90
2024-04-19T05:34:37.177Z,10.10
2024-04-19T05:39:43.472Z,10.70
2024-04-19T05:44:49.620Z,10.80
2024-04-19T05:49:55.890Z,9.60
2024-04-19T05:55:02.274Z,8.90
2024-04-19T06:00:09.667Z,9.00
2024-04-19T06:05:15.975Z,10.10
2024-04-19T06:10:22.130Z,9.60
2024-04-19T06:15:28.303Z,10.50
2024-04-19T06:20:38.068Z,11.50
2024-04-19T06:25:44.418Z,16.30
2024-04-19T06:30:50.879Z,14.20
2024-04-19T06:35:59.734Z,11.70
2024-04-19T06:41:06.765Z,10.40
2024-04-19T06:46:14.885Z,9.90
2024-04-19T06:51:21.025Z,9.90
2024-04-19T06:56:27.193Z,9.00
2024-04-19T07:01:34.250Z,8.30
2024-04-19T07:06:42.811Z,8.50
2024-04-19T07:11:50.560Z,8.70
2024-04-19T07:16:56.651Z,8.90
2024-04-19T07:22:02.828Z,6.10
2024-04-19T07:27:08.754Z,6.20
2024-04-19T07:32:15.043Z,7.20
2024-04-19T07:37:21.069Z,8.40
2024-04-19T07:42:30.213Z,7.30
2024-04-19T07:47:36.351Z,5.50
2024-04-19T07:52:42.495Z,5.20
2024-04-19T07:57:49.883Z,4.70
2024-04-19T08:02:56.089Z,4.20
2024-04-19T08:08:02.726Z,4.70
2024-04-19T08:13:09.308Z,4.20
2024-04-19T08:18:15.385Z,4.30
2024-04-19T08:23:21.576Z,4.50
2024-04-19T08:28:28.666Z,4.60
2024-04-19T08:33:34.728Z,5.40
2024-04-19T08:38:40.753Z,6.50
2024-04-19T08:43:47.344Z,6.50
2024-04-19T08:48:53.963Z,6.20
2024-04-19T08:54:00.229Z,6.20
2024-04-19T08:59:06.588Z,6.30
2024-04-19T09:04:15.451Z,8.10
2024-04-19T09:09:22.172Z,6.70
2024-04-19T09:14:28.351Z,5.60
2024-04-19T09:19:34.584Z,5.10
2024-04-19T09:24:41.717Z,5.00
2024-04-19T09:29:47.838Z,5.60
2024-04-19T09:34:53.779Z,4.60
2024-04-19T09:40:00.627Z,4.90
2024-04-19T09:45:09.709Z,4.90
2024-04-19T09:50:17.187Z,3.90
2024-04-19T09:55:29.688Z,3.40
2024-04-19T10:00:36.158Z,3.50
2024-04-19T10:05:42.460Z,3.40
2024-04-19T10:10:48.503Z,3.20
2024-04-19T10:15:58.568Z,3.20
2024-04-19T10:21:05.102Z,4.90
2024-04-19T10:26:11.431Z,5.10
2024-04-19T10:31:17.770Z,2.80
2024-04-19T10:36:34.824Z,3.00
2024-04-19T10:41:53.637Z,3.10
2024-04-19T10:46:59.640Z,3.50
2024-04-19T10:52:06.162Z,3.10
2024-04-19T10:57:12.715Z,2.30
2024-04-19T11:02:19.596Z,2.50
2024-04-19T11:07:25.809Z,3.00
2024-04-19T11:12:31.859Z,2.30
2024-04-19T11:17:40.451Z,2.10
2024-04-19T11:22:47.728Z,2.00
2024-04-19T11:27:54.148Z,1.60
2024-04-19T11:33:01.258Z,1.80
2024-04-19T11:38:07.467Z,1.40
2024-04-19T11:43:13.766Z,1.30
2024-04-19T11:48:25.313Z,1.30
2024-04-19T11:53:31.738Z,1.30
2024-04-19T11:58:37.886Z,1.30
2024-04-19T12:03:43.988Z,1.40
2024-04-19T12:08:50.500Z,1.10
2024-04-19T12:14:50.542Z,1.50
2024-04-19T12:19:23.494Z,1.20
2024-04-19T12:24:36.835Z,1.20
2024-04-19T12:29:46.876Z,1.10
2024-04-19T12:34:53.583Z,1.60
2024-04-19T12:40:00.031Z,1.70
2024-04-19T12:45:06.975Z,1.50
2024-04-19T12:50:13.232Z,1.40
2024-04-19T12:55:19.183Z,1.40
2024-04-19T13:00:25.423Z,1.80
2024-04-19T13:05:31.912Z,2.20
2024-04-19T13:10:41.955Z,2.20
2024-04-19T13:20:53.499Z,2.10
2024-04-19T13:25:59.479Z,2.10
2024-04-19T13:31:05.785Z,1.70
2024-04-19T13:36:12.028Z,1.50
2024-04-19T13:41:18.792Z,1.10
2024-04-19T13:46:25.260Z,1.30
2024-04-19T13:51:31.682Z,1.30
2024-04-19T13:56:38.462Z,1.00
2024-04-19T14:01:44.733Z,1.30
2024-04-19T14:06:50.859Z,1.30
2024-04-19T14:11:58.281Z,1.20
2024-04-19T14:17:05.409Z,1.60
2024-04-19T14:22:13.214Z,1.50
2024-04-19T14:27:19.238Z,1.40
2024-04-19T14:32:25.717Z,1.70
2024-04-19T14:37:31.861Z,1.90
2024-04-19T14:42:40.385Z,2.30
2024-04-19T14:47:46.768Z,2.40
2024-04-19T14:53:00.178Z,2.70
2024-04-19T14:58:10.530Z,2.90
2024-04-19T15:03:18.202Z,2.80
2024-04-19T15:08:24.597Z,2.40
2024-04-19T15:13:32.522Z,2.60
2024-04-19T15:18:40.938Z,2.60
2024-04-19T15:23:47.074Z,3.50
2024-04-19T15:28:53.447Z,4.10
2024-04-19T15:34:09.871Z,3.20
2024-04-19T15:39:25.816Z,9.70
2024-04-19T15:44:31.878Z,9.40
2024-04-19T15:49:38.062Z,4.50
2024-04-19T15:54:44.407Z,4.00
2024-04-19T15:59:51.281Z,4.50
2024-04-19T16:04:57.590Z,4.80
2024-04-19T16:10:04.138Z,5.30
2024-04-19T16:15:11.717Z,4.00
2024-04-19T16:20:18.756Z,5.40
2024-04-19T16:25:25.099Z,9.20
2024-04-19T16:30:31.067Z,6.10
2024-04-19T16:35:44.093Z,13.00
2024-04-19T16:46:03.600Z,7.40
2024-04-19T16:51:10.091Z,6.80
2024-04-19T16:56:18.140Z,4.60
2024-04-19T17:01:24.899Z,6.00
2024-04-19T17:06:30.958Z,8.30
2024-04-19T17:11:37.119Z,7.80
2024-04-19T17:16:44.820Z,6.90
2024-04-19T17:21:50.994Z,7.00
2024-04-19T17:26:57.126Z,10.10
2024-04-19T17:32:03.290Z,9.50
2024-04-19T17:37:10.767Z,25.20
2024-04-19T17:42:18.767Z,32.10
2024-04-19T17:47:25.412Z,15.90
2024-04-19T17:52:31.824Z,23.50
2024-04-19T17:57:38.035Z,17.40
2024-04-19T18:02:44.260Z,16.20
2024-04-19T18:07:50.359Z,13.70
2024-04-19T18:12:56.983Z,16.10
2024-04-19T18:18:04.695Z,18.10
2024-04-19T18:23:13.979Z,43.80
2024-04-19T18:28:20.946Z,54.60
2024-04-19T18:33:27.568Z,75.20
2024-04-19T18:38:33.860Z,31.00
2024-04-19T18:43:41.220Z,16.80
2024-04-19T18:48:47.394Z,22.10
2024-04-19T18:53:57.749Z,16.70
2024-04-19T18:59:03.932Z,16.30
2024-04-19T19:04:10.078Z,17.90
2024-04-19T19:09:17.371Z,18.60
2024-04-19T19:14:23.678Z,16.10
2024-04-19T19:19:30.262Z,16.60
2024-04-19T19:24:36.407Z,14.10
2024-04-19T19:29:42.823Z,13.00
2024-04-19T19:34:50.159Z,11.40
2024-04-19T19:40:00.472Z,11.90
2024-04-19T19:45:07.983Z,11.30
2024-04-19T19:50:14.070Z,14.80
2024-04-19T19:55:20.066Z,11.60
2024-04-19T20:00:45.074Z,10.80
2024-04-19T20:05:52.686Z,10.50
2024-04-19T20:10:58.971Z,10.20
2024-04-19T20:16:05.650Z,9.70
2024-04-19T20:21:11.809Z,8.90
2024-04-19T20:26:17.915Z,8.90
2024-04-19T20:31:24.295Z,12.00
2024-04-19T20:36:30.309Z,9.60
2024-04-19T20:41:38.198Z,9.40
2024-04-19T20:46:44.550Z,8.90
2024-04-19T20:51:50.817Z,10.70
2024-04-19T20:56:57.073Z,9.50
2024-04-19T21:02:04.214Z,9.30
2024-04-19T21:07:10.300Z,9.00
2024-04-19T21:12:16.673Z,8.30
2024-04-19T21:17:25.436Z,9.70
2024-04-19T21:22:32.963Z,10.20
2024-04-19T21:27:40.358Z,11.20
2024-04-19T21:32:46.555Z,9.40
2024-04-19T21:37:53.423Z,9.00
2024-04-19T21:42:59.871Z,10.30
2024-04-19T21:48:07.070Z,10.40
2024-04-19T21:53:13.220Z,10.10
2024-04-19T21:58:19.199Z,10.50
2024-04-19T22:03:25.490Z,9.80
2024-04-19T22:08:31.682Z,10.90
2024-04-19T22:13:37.946Z,8.50
2024-04-19T22:18:44.176Z,7.90
2024-04-19T22:23:50.169Z,7.60
2024-04-19T22:28:56.264Z,7.30
2024-04-19T22:34:02.660Z,7.30
2024-04-19T22:39:08.883Z,7.00
2024-04-19T22:44:15.091Z,7.10
2024-04-19T22:49:21.188Z,8.90
2024-04-19T22:54:27.245Z,7.90
2024-04-19T22:59:33.276Z,7.30
2024-04-19T23:04:39.461Z,7.50
2024-04-19T23:09:45.637Z,8.70
2024-04-19T23:14:51.716Z,8.50
2024-04-19T23:19:58.122Z,6.50
2024-04-19T23:25:05.051Z,7.40
2024-04-19T23:30:11.932Z,8.70
2024-04-19T23:35:18.244Z,7.90
2024-04-19T23:40:25.249Z,7.10
2024-04-19T23:45:32.971Z,7.80
2024-04-19T23:50:39.326Z,9.40
2024-04-19T23:55:45.489Z,9.10
